sensor_id;sensor_type;location;lat;lon;timestamp;P1;durP1;ratioP1;P2;durP2;ratioP2
5295;SDS011;2670;42.720;23.336;2023-05-17T00:00:56;14.10;;;8.53;;
5295;SDS011;2670;42.720;23.336;2023-05-17T00:03:23;16.03;;;6.73;;
5295;SDS011;2670;42.720;23.336;2023-05-17T00:05:50;22.33;;;8.20;;
5295;SDS011;2670;42.720;23.336;2023-05-17T00:08:17;19.43;;;8.50;;
5295;SDS011;2670;42.720;23.336;2023-05-17T00:10:43;18.80;;;7.83;;
5295;SDS011;2670;42.720;23.336;2023-05-17T00:13:10;11.80;;;8.13;;
5295;SDS011;2670;42.720;23.336;2023-05-17T00:15:37;17.23;;;8.27;;
5295;SDS011;2670;42.720;23.336;2023-05-17T00:18:05;14.33;;;8.20;;
5295;SDS011;2670;42.720;23.336;2023-05-17T00:20:31;15.03;;;7.60;;
5295;SDS011;2670;42.720;23.336;2023-05-17T00:22:58;17.30;;;8.30;;
5295;SDS011;2670;42.720;23.336;2023-05-17T00:25:25;18.97;;;8.20;;
5295;SDS011;2670;42.720;23.336;2023-05-17T00:27:52;14.80;;;8.00;;
5295;SDS011;2670;42.720;23.336;2023-05-17T00:30:19;16.73;;;7.90;;
5295;SDS011;2670;42.720;23.336;2023-05-17T00:32:46;11.70;;;7.53;;
5295;SDS011;2670;42.720;23.336;2023-05-17T00:35:14;15.50;;;7.70;;
5295;SDS011;2670;42.720;23.336;2023-05-17T00:37:40;13.47;;;7.00;;
5295;SDS011;2670;42.720;23.336;2023-05-17T00:40:12;12.00;;;7.03;;
5295;SDS011;2670;42.720;23.336;2023-05-17T00:42:39;12.50;;;7.23;;
5295;SDS011;2670;42.720;23.336;2023-05-17T00:45:06;21.37;;;7.30;;
5295;SDS011;2670;42.720;23.336;2023-05-17T00:47:33;14.30;;;7.63;;
5295;SDS011;2670;42.720;23.336;2023-05-17T00:50:00;13.80;;;8.00;;
5295;SDS011;2670;42.720;23.336;2023-05-17T00:52:28;12.93;;;7.50;;
5295;SDS011;2670;42.720;23.336;2023-05-17T00:54:55;11.53;;;6.90;;
5295;SDS011;2670;42.720;23.336;2023-05-17T00:57:22;13.10;;;6.87;;
5295;SDS011;2670;42.720;23.336;2023-05-17T00:59:48;19.53;;;7.13;;
5295;SDS011;2670;42.720;23.336;2023-05-17T01:02:17;16.80;;;6.67;;
5295;SDS011;2670;42.720;23.336;2023-05-17T01:04:44;14.90;;;7.27;;
5295;SDS011;2670;42.720;23.336;2023-05-17T01:07:11;24.63;;;7.20;;
5295;SDS011;2670;42.720;23.336;2023-05-17T01:09:39;14.27;;;6.80;;
5295;SDS011;2670;42.720;23.336;2023-05-17T01:12:09;16.73;;;7.40;;
5295;SDS011;2670;42.720;23.336;2023-05-17T01:14:46;24.53;;;8.93;;
5295;SDS011;2670;42.720;23.336;2023-05-17T01:17:20;10.10;;;6.60;;
5295;SDS011;2670;42.720;23.336;2023-05-17T01:19:54;10.83;;;7.00;;
5295;SDS011;2670;42.720;23.336;2023-05-17T01:22:36;13.37;;;6.90;;
5295;SDS011;2670;42.720;23.336;2023-05-17T01:25:13;24.43;;;7.33;;
5295;SDS011;2670;42.720;23.336;2023-05-17T01:27:50;17.10;;;7.57;;
5295;SDS011;2670;42.720;23.336;2023-05-17T01:30:19;16.10;;;7.70;;
5295;SDS011;2670;42.720;23.336;2023-05-17T01:32:47;10.70;;;7.53;;
5295;SDS011;2670;42.720;23.336;2023-05-17T01:35:14;15.30;;;7.27;;
5295;SDS011;2670;42.720;23.336;2023-05-17T01:37:41;20.63;;;7.00;;
5295;SDS011;2670;42.720;23.336;2023-05-17T01:40:08;15.10;;;7.40;;
5295;SDS011;2670;42.720;23.336;2023-05-17T01:42:36;11.20;;;7.17;;
5295;SDS011;2670;42.720;23.336;2023-05-17T01:45:07;12.03;;;7.50;;
5295;SDS011;2670;42.720;23.336;2023-05-17T01:47:44;12.40;;;7.07;;
5295;SDS011;2670;42.720;23.336;2023-05-17T01:50:16;25.47;;;8.17;;
5295;SDS011;2670;42.720;23.336;2023-05-17T01:52:48;15.60;;;7.60;;
5295;SDS011;2670;42.720;23.336;2023-05-17T01:55:19;13.53;;;7.60;;
5295;SDS011;2670;42.720;23.336;2023-05-17T01:57:52;12.80;;;7.60;;
5295;SDS011;2670;42.720;23.336;2023-05-17T02:00:22;11.93;;;6.87;;
5295;SDS011;2670;42.720;23.336;2023-05-17T02:02:50;21.70;;;7.70;;
5295;SDS011;2670;42.720;23.336;2023-05-17T02:05:17;11.73;;;7.77;;
5295;SDS011;2670;42.720;23.336;2023-05-17T02:07:44;22.03;;;7.90;;
5295;SDS011;2670;42.720;23.336;2023-05-17T02:10:11;14.30;;;7.53;;
5295;SDS011;2670;42.720;23.336;2023-05-17T02:12:38;12.53;;;7.30;;
5295;SDS011;2670;42.720;23.336;2023-05-17T02:15:05;15.77;;;7.03;;
5295;SDS011;2670;42.720;23.336;2023-05-17T02:17:36;27.10;;;8.57;;
5295;SDS011;2670;42.720;23.336;2023-05-17T02:20:03;21.90;;;8.13;;
5295;SDS011;2670;42.720;23.336;2023-05-17T02:22:31;22.03;;;7.50;;
5295;SDS011;2670;42.720;23.336;2023-05-17T02:24:57;17.60;;;6.90;;
5295;SDS011;2670;42.720;23.336;2023-05-17T02:27:24;16.03;;;7.20;;
5295;SDS011;2670;42.720;23.336;2023-05-17T02:29:51;17.37;;;7.57;;
5295;SDS011;2670;42.720;23.336;2023-05-17T02:32:17;22.33;;;7.93;;
5295;SDS011;2670;42.720;23.336;2023-05-17T02:34:45;15.83;;;7.17;;
5295;SDS011;2670;42.720;23.336;2023-05-17T02:37:12;24.30;;;8.00;;
5295;SDS011;2670;42.720;23.336;2023-05-17T02:39:39;16.93;;;7.50;;
5295;SDS011;2670;42.720;23.336;2023-05-17T02:42:06;14.57;;;8.07;;
5295;SDS011;2670;42.720;23.336;2023-05-17T02:44:33;10.17;;;7.33;;
5295;SDS011;2670;42.720;23.336;2023-05-17T02:46:59;14.40;;;7.87;;
5295;SDS011;2670;42.720;23.336;2023-05-17T02:49:26;13.57;;;8.03;;
5295;SDS011;2670;42.720;23.336;2023-05-17T02:51:54;16.30;;;8.23;;
5295;SDS011;2670;42.720;23.336;2023-05-17T02:54:21;20.60;;;8.20;;
5295;SDS011;2670;42.720;23.336;2023-05-17T02:56:47;26.50;;;8.70;;
5295;SDS011;2670;42.720;23.336;2023-05-17T02:59:14;16.73;;;8.50;;
5295;SDS011;2670;42.720;23.336;2023-05-17T03:01:41;18.80;;;10.03;;
5295;SDS011;2670;42.720;23.336;2023-05-17T03:04:07;17.90;;;8.73;;
5295;SDS011;2670;42.720;23.336;2023-05-17T03:06:34;19.30;;;9.70;;
5295;SDS011;2670;42.720;23.336;2023-05-17T03:09:03;16.70;;;9.93;;
5295;SDS011;2670;42.720;23.336;2023-05-17T03:11:31;22.73;;;10.23;;
5295;SDS011;2670;42.720;23.336;2023-05-17T03:13:58;16.50;;;9.10;;
5295;SDS011;2670;42.720;23.336;2023-05-17T03:16:24;26.00;;;9.43;;
5295;SDS011;2670;42.720;23.336;2023-05-17T03:18:51;17.17;;;9.53;;
5295;SDS011;2670;42.720;23.336;2023-05-17T03:21:18;23.00;;;10.53;;
5295;SDS011;2670;42.720;23.336;2023-05-17T03:23:44;25.23;;;10.90;;
5295;SDS011;2670;42.720;23.336;2023-05-17T03:26:12;19.07;;;10.50;;
5295;SDS011;2670;42.720;23.336;2023-05-17T03:28:39;22.23;;;9.57;;
5295;SDS011;2670;42.720;23.336;2023-05-17T03:31:06;21.07;;;9.60;;
5295;SDS011;2670;42.720;23.336;2023-05-17T03:33:33;19.10;;;9.70;;
5295;SDS011;2670;42.720;23.336;2023-05-17T03:36:00;25.00;;;10.20;;
5295;SDS011;2670;42.720;23.336;2023-05-17T03:38:26;16.87;;;9.50;;
5295;SDS011;2670;42.720;23.336;2023-05-17T03:40:53;25.63;;;10.63;;
5295;SDS011;2670;42.720;23.336;2023-05-17T03:43:21;26.43;;;11.20;;
5295;SDS011;2670;42.720;23.336;2023-05-17T03:45:48;26.87;;;11.17;;
5295;SDS011;2670;42.720;23.336;2023-05-17T03:48:15;29.90;;;11.00;;
5295;SDS011;2670;42.720;23.336;2023-05-17T03:50:41;21.63;;;12.30;;
5295;SDS011;2670;42.720;23.336;2023-05-17T03:53:08;24.60;;;11.70;;
5295;SDS011;2670;42.720;23.336;2023-05-17T03:55:35;17.13;;;10.97;;
5295;SDS011;2670;42.720;23.336;2023-05-17T03:58:01;27.93;;;11.87;;
5295;SDS011;2670;42.720;23.336;2023-05-17T04:00:29;26.50;;;12.63;;
5295;SDS011;2670;42.720;23.336;2023-05-17T04:02:56;28.60;;;13.40;;
5295;SDS011;2670;42.720;23.336;2023-05-17T04:05:23;31.23;;;14.30;;
5295;SDS011;2670;42.720;23.336;2023-05-17T04:07:50;22.03;;;12.97;;
5295;SDS011;2670;42.720;23.336;2023-05-17T04:10:17;23.13;;;13.60;;
5295;SDS011;2670;42.720;23.336;2023-05-17T04:12:44;26.90;;;15.03;;
5295;SDS011;2670;42.720;23.336;2023-05-17T04:15:11;26.60;;;14.63;;
5295;SDS011;2670;42.720;23.336;2023-05-17T04:17:39;25.27;;;16.37;;
5295;SDS011;2670;42.720;23.336;2023-05-17T04:20:06;28.13;;;16.20;;
5295;SDS011;2670;42.720;23.336;2023-05-17T04:22:33;27.67;;;15.03;;
5295;SDS011;2670;42.720;23.336;2023-05-17T04:25:00;30.00;;;16.97;;
5295;SDS011;2670;42.720;23.336;2023-05-17T04:27:26;36.60;;;17.53;;
5295;SDS011;2670;42.720;23.336;2023-05-17T04:29:53;31.40;;;16.93;;
5295;SDS011;2670;42.720;23.336;2023-05-17T04:32:20;34.47;;;18.63;;
5295;SDS011;2670;42.720;23.336;2023-05-17T04:34:48;32.20;;;19.63;;
5295;SDS011;2670;42.720;23.336;2023-05-17T04:37:16;32.50;;;19.70;;
5295;SDS011;2670;42.720;23.336;2023-05-17T04:39:42;32.80;;;20.30;;
5295;SDS011;2670;42.720;23.336;2023-05-17T04:42:09;37.97;;;18.73;;
5295;SDS011;2670;42.720;23.336;2023-05-17T04:44:36;30.77;;;18.17;;
5295;SDS011;2670;42.720;23.336;2023-05-17T04:47:02;39.83;;;20.03;;
5295;SDS011;2670;42.720;23.336;2023-05-17T04:49:29;32.10;;;18.27;;
5295;SDS011;2670;42.720;23.336;2023-05-17T04:51:57;30.10;;;19.30;;
5295;SDS011;2670;42.720;23.336;2023-05-17T04:54:24;34.23;;;17.90;;
5295;SDS011;2670;42.720;23.336;2023-05-17T04:56:51;25.73;;;16.23;;
5295;SDS011;2670;42.720;23.336;2023-05-17T04:59:18;26.40;;;18.03;;
5295;SDS011;2670;42.720;23.336;2023-05-17T05:01:44;24.17;;;18.10;;
5295;SDS011;2670;42.720;23.336;2023-05-17T05:04:11;26.40;;;17.47;;
5295;SDS011;2670;42.720;23.336;2023-05-17T05:06:38;27.90;;;16.53;;
5295;SDS011;2670;42.720;23.336;2023-05-17T05:09:06;25.30;;;17.00;;
5295;SDS011;2670;42.720;23.336;2023-05-17T05:11:33;29.23;;;17.37;;
5295;SDS011;2670;42.720;23.336;2023-05-17T05:14:02;34.10;;;17.90;;
5295;SDS011;2670;42.720;23.336;2023-05-17T05:16:29;39.50;;;17.00;;
5295;SDS011;2670;42.720;23.336;2023-05-17T05:18:56;29.97;;;16.60;;
5295;SDS011;2670;42.720;23.336;2023-05-17T05:21:22;27.93;;;17.10;;
5295;SDS011;2670;42.720;23.336;2023-05-17T05:23:51;37.37;;;18.70;;
5295;SDS011;2670;42.720;23.336;2023-05-17T05:26:19;25.47;;;17.97;;
5295;SDS011;2670;42.720;23.336;2023-05-17T05:28:46;35.93;;;17.70;;
5295;SDS011;2670;42.720;23.336;2023-05-17T05:31:13;30.40;;;16.40;;
5295;SDS011;2670;42.720;23.336;2023-05-17T05:33:40;26.87;;;17.87;;
5295;SDS011;2670;42.720;23.336;2023-05-17T05:36:07;32.93;;;17.53;;
5295;SDS011;2670;42.720;23.336;2023-05-17T05:38:34;27.93;;;16.50;;
5295;SDS011;2670;42.720;23.336;2023-05-17T05:41:01;34.43;;;19.60;;
5295;SDS011;2670;42.720;23.336;2023-05-17T05:43:29;31.33;;;17.80;;
5295;SDS011;2670;42.720;23.336;2023-05-17T05:45:56;34.20;;;17.00;;
5295;SDS011;2670;42.720;23.336;2023-05-17T05:48:22;32.47;;;16.80;;
5295;SDS011;2670;42.720;23.336;2023-05-17T05:50:49;28.40;;;16.00;;
5295;SDS011;2670;42.720;23.336;2023-05-17T05:53:16;25.23;;;14.90;;
5295;SDS011;2670;42.720;23.336;2023-05-17T05:55:43;31.20;;;16.40;;
5295;SDS011;2670;42.720;23.336;2023-05-17T05:58:09;24.00;;;14.17;;
5295;SDS011;2670;42.720;23.336;2023-05-17T06:00:37;21.30;;;13.43;;
5295;SDS011;2670;42.720;23.336;2023-05-17T06:03:04;26.43;;;12.20;;
5295;SDS011;2670;42.720;23.336;2023-05-17T06:05:31;25.07;;;13.73;;
5295;SDS011;2670;42.720;23.336;2023-05-17T06:07:57;22.37;;;11.83;;
5295;SDS011;2670;42.720;23.336;2023-05-17T06:10:24;19.10;;;12.70;;
5295;SDS011;2670;42.720;23.336;2023-05-17T06:12:51;20.10;;;10.07;;
5295;SDS011;2670;42.720;23.336;2023-05-17T06:15:18;21.07;;;9.73;;
5295;SDS011;2670;42.720;23.336;2023-05-17T06:17:46;21.27;;;11.83;;
5295;SDS011;2670;42.720;23.336;2023-05-17T06:20:12;27.90;;;11.60;;
5295;SDS011;2670;42.720;23.336;2023-05-17T06:22:40;19.30;;;11.03;;
5295;SDS011;2670;42.720;23.336;2023-05-17T06:25:08;22.10;;;11.50;;
5295;SDS011;2670;42.720;23.336;2023-05-17T06:27:35;23.40;;;11.23;;
5295;SDS011;2670;42.720;23.336;2023-05-17T06:30:02;33.70;;;11.23;;
5295;SDS011;2670;42.720;23.336;2023-05-17T06:32:29;19.70;;;12.63;;
5295;SDS011;2670;42.720;23.336;2023-05-17T06:34:58;17.53;;;11.93;;
5295;SDS011;2670;42.720;23.336;2023-05-17T06:37:24;20.57;;;11.33;;
5295;SDS011;2670;42.720;23.336;2023-05-17T06:39:51;28.60;;;12.27;;
5295;SDS011;2670;42.720;23.336;2023-05-17T06:42:18;24.87;;;12.30;;
5295;SDS011;2670;42.720;23.336;2023-05-17T06:44:44;18.83;;;11.10;;
5295;SDS011;2670;42.720;23.336;2023-05-17T06:47:11;17.03;;;11.30;;
5295;SDS011;2670;42.720;23.336;2023-05-17T06:49:38;21.63;;;11.90;;
5295;SDS011;2670;42.720;23.336;2023-05-17T06:52:06;22.70;;;12.63;;
5295;SDS011;2670;42.720;23.336;2023-05-17T06:54:32;19.10;;;12.80;;
5295;SDS011;2670;42.720;23.336;2023-05-17T06:57:00;21.40;;;12.90;;
5295;SDS011;2670;42.720;23.336;2023-05-17T06:59:27;19.93;;;11.50;;
5295;SDS011;2670;42.720;23.336;2023-05-17T07:01:54;23.83;;;11.77;;
5295;SDS011;2670;42.720;23.336;2023-05-17T07:04:21;19.50;;;11.60;;
5295;SDS011;2670;42.720;23.336;2023-05-17T07:06:47;25.73;;;12.20;;
5295;SDS011;2670;42.720;23.336;2023-05-17T07:09:16;32.60;;;13.57;;
5295;SDS011;2670;42.720;23.336;2023-05-17T07:11:43;27.57;;;11.93;;
5295;SDS011;2670;42.720;23.336;2023-05-17T07:14:10;26.73;;;12.47;;
5295;SDS011;2670;42.720;23.336;2023-05-17T07:16:36;22.27;;;12.53;;
5295;SDS011;2670;42.720;23.336;2023-05-17T07:19:03;26.97;;;12.33;;
5295;SDS011;2670;42.720;23.336;2023-05-17T07:21:30;27.93;;;12.83;;
5295;SDS011;2670;42.720;23.336;2023-05-17T07:23:57;24.70;;;12.10;;
5295;SDS011;2670;42.720;23.336;2023-05-17T07:26:25;19.80;;;12.43;;
5295;SDS011;2670;42.720;23.336;2023-05-17T07:28:52;28.63;;;12.97;;
5295;SDS011;2670;42.720;23.336;2023-05-17T07:31:18;25.37;;;11.83;;
5295;SDS011;2670;42.720;23.336;2023-05-17T07:33:45;21.40;;;11.50;;
5295;SDS011;2670;42.720;23.336;2023-05-17T07:36:12;24.57;;;12.77;;
5295;SDS011;2670;42.720;23.336;2023-05-17T07:38:38;22.53;;;13.03;;
5295;SDS011;2670;42.720;23.336;2023-05-17T07:41:05;30.80;;;13.57;;
5295;SDS011;2670;42.720;23.336;2023-05-17T07:43:35;30.90;;;13.67;;
5295;SDS011;2670;42.720;23.336;2023-05-17T07:46:02;26.03;;;12.60;;
5295;SDS011;2670;42.720;23.336;2023-05-17T07:48:29;25.47;;;12.50;;
5295;SDS011;2670;42.720;23.336;2023-05-17T07:50:56;26.70;;;12.83;;
5295;SDS011;2670;42.720;23.336;2023-05-17T07:53:22;26.50;;;14.30;;
5295;SDS011;2670;42.720;23.336;2023-05-17T07:55:49;23.97;;;13.60;;
5295;SDS011;2670;42.720;23.336;2023-05-17T07:58:16;22.83;;;12.27;;
5295;SDS011;2670;42.720;23.336;2023-05-17T08:00:44;22.43;;;12.03;;
5295;SDS011;2670;42.720;23.336;2023-05-17T08:03:10;21.47;;;12.67;;
5295;SDS011;2670;42.720;23.336;2023-05-17T08:05:37;22.13;;;12.93;;
5295;SDS011;2670;42.720;23.336;2023-05-17T08:08:04;25.80;;;13.03;;
5295;SDS011;2670;42.720;23.336;2023-05-17T08:10:31;24.33;;;12.03;;
5295;SDS011;2670;42.720;23.336;2023-05-17T08:12:58;24.07;;;11.77;;
5295;SDS011;2670;42.720;23.336;2023-05-17T08:15:25;26.57;;;13.97;;
5295;SDS011;2670;42.720;23.336;2023-05-17T08:17:53;35.53;;;13.50;;
5295;SDS011;2670;42.720;23.336;2023-05-17T08:20:20;31.93;;;12.40;;
5295;SDS011;2670;42.720;23.336;2023-05-17T08:22:46;23.27;;;13.07;;
5295;SDS011;2670;42.720;23.336;2023-05-17T08:25:13;46.53;;;13.57;;
5295;SDS011;2670;42.720;23.336;2023-05-17T08:27:40;31.70;;;11.93;;
5295;SDS011;2670;42.720;23.336;2023-05-17T08:30:07;22.13;;;11.27;;
5295;SDS011;2670;42.720;23.336;2023-05-17T08:32:34;22.17;;;12.10;;
5295;SDS011;2670;42.720;23.336;2023-05-17T08:35:02;26.93;;;12.13;;
5295;SDS011;2670;42.720;23.336;2023-05-17T08:37:29;26.77;;;11.73;;
5295;SDS011;2670;42.720;23.336;2023-05-17T08:39:56;20.93;;;11.67;;
5295;SDS011;2670;42.720;23.336;2023-05-17T08:42:23;21.60;;;12.00;;
5295;SDS011;2670;42.720;23.336;2023-05-17T08:44:50;26.20;;;11.20;;
5295;SDS011;2670;42.720;23.336;2023-05-17T08:47:18;24.13;;;11.80;;
5295;SDS011;2670;42.720;23.336;2023-05-17T08:49:54;19.30;;;11.07;;
5295;SDS011;2670;42.720;23.336;2023-05-17T08:52:27;19.00;;;10.60;;
5295;SDS011;2670;42.720;23.336;2023-05-17T08:54:56;20.40;;;10.73;;
5295;SDS011;2670;42.720;23.336;2023-05-17T08:57:23;25.57;;;10.73;;
5295;SDS011;2670;42.720;23.336;2023-05-17T08:59:53;25.57;;;11.60;;
5295;SDS011;2670;42.720;23.336;2023-05-17T09:02:21;20.77;;;11.23;;
5295;SDS011;2670;42.720;23.336;2023-05-17T09:04:48;26.23;;;10.43;;
5295;SDS011;2670;42.720;23.336;2023-05-17T09:07:19;28.60;;;11.13;;
5295;SDS011;2670;42.720;23.336;2023-05-17T09:09:48;27.97;;;11.60;;
5295;SDS011;2670;42.720;23.336;2023-05-17T09:12:17;23.90;;;10.10;;
5295;SDS011;2670;42.720;23.336;2023-05-17T09:14:43;20.10;;;11.27;;
5295;SDS011;2670;42.720;23.336;2023-05-17T09:17:12;24.33;;;11.33;;
5295;SDS011;2670;42.720;23.336;2023-05-17T09:19:41;27.77;;;11.70;;
5295;SDS011;2670;42.720;23.336;2023-05-17T09:22:11;17.87;;;10.63;;
5295;SDS011;2670;42.720;23.336;2023-05-17T09:24:40;29.33;;;10.20;;
5295;SDS011;2670;42.720;23.336;2023-05-17T09:27:08;18.90;;;10.43;;
5295;SDS011;2670;42.720;23.336;2023-05-17T09:29:40;21.30;;;10.57;;
5295;SDS011;2670;42.720;23.336;2023-05-17T09:32:16;16.90;;;9.30;;
5295;SDS011;2670;42.720;23.336;2023-05-17T09:34:45;14.67;;;8.50;;
5295;SDS011;2670;42.720;23.336;2023-05-17T09:37:12;22.37;;;10.30;;
5295;SDS011;2670;42.720;23.336;2023-05-17T09:39:40;21.57;;;9.60;;
5295;SDS011;2670;42.720;23.336;2023-05-17T09:42:10;23.63;;;10.07;;
5295;SDS011;2670;42.720;23.336;2023-05-17T09:44:49;18.70;;;10.27;;
5295;SDS011;2670;42.720;23.336;2023-05-17T09:47:22;13.60;;;8.10;;
5295;SDS011;2670;42.720;23.336;2023-05-17T09:49:50;17.57;;;10.13;;
5295;SDS011;2670;42.720;23.336;2023-05-17T09:52:17;28.53;;;10.87;;
5295;SDS011;2670;42.720;23.336;2023-05-17T09:54:53;32.67;;;10.53;;
5295;SDS011;2670;42.720;23.336;2023-05-17T09:57:23;17.30;;;9.00;;
5295;SDS011;2670;42.720;23.336;2023-05-17T09:59:52;18.60;;;9.50;;
5295;SDS011;2670;42.720;23.336;2023-05-17T10:02:21;19.30;;;9.00;;
5295;SDS011;2670;42.720;23.336;2023-05-17T10:04:51;23.63;;;10.63;;
5295;SDS011;2670;42.720;23.336;2023-05-17T10:07:22;23.13;;;10.10;;
5295;SDS011;2670;42.720;23.336;2023-05-17T10:09:50;16.97;;;8.77;;
5295;SDS011;2670;42.720;23.336;2023-05-17T10:12:20;23.63;;;8.30;;
5295;SDS011;2670;42.720;23.336;2023-05-17T10:14:50;17.87;;;8.67;;
5295;SDS011;2670;42.720;23.336;2023-05-17T10:17:19;23.80;;;9.47;;
5295;SDS011;2670;42.720;23.336;2023-05-17T10:19:47;16.87;;;7.67;;
5295;SDS011;2670;42.720;23.336;2023-05-17T10:22:14;18.77;;;8.27;;
5295;SDS011;2670;42.720;23.336;2023-05-17T10:24:42;19.00;;;8.07;;
5295;SDS011;2670;42.720;23.336;2023-05-17T10:27:10;16.67;;;7.33;;
5295;SDS011;2670;42.720;23.336;2023-05-17T10:29:38;22.90;;;6.60;;
5295;SDS011;2670;42.720;23.336;2023-05-17T10:32:07;14.20;;;6.63;;
5295;SDS011;2670;42.720;23.336;2023-05-17T10:34:35;13.93;;;7.20;;
5295;SDS011;2670;42.720;23.336;2023-05-17T10:37:03;16.40;;;7.13;;
5295;SDS011;2670;42.720;23.336;2023-05-17T10:39:30;22.13;;;8.23;;
5295;SDS011;2670;42.720;23.336;2023-05-17T10:42:03;18.73;;;7.90;;
5295;SDS011;2670;42.720;23.336;2023-05-17T10:44:32;25.13;;;7.73;;
5295;SDS011;2670;42.720;23.336;2023-05-17T10:47:00;19.20;;;8.77;;
5295;SDS011;2670;42.720;23.336;2023-05-17T10:49:29;24.37;;;8.57;;
5295;SDS011;2670;42.720;23.336;2023-05-17T10:51:57;20.70;;;7.83;;
5295;SDS011;2670;42.720;23.336;2023-05-17T10:57:17;22.97;;;7.97;;
5295;SDS011;2670;42.720;23.336;2023-05-17T10:59:57;17.90;;;7.43;;
5295;SDS011;2670;42.720;23.336;2023-05-17T11:02:25;19.50;;;8.30;;
5295;SDS011;2670;42.720;23.336;2023-05-17T11:04:54;18.77;;;7.70;;
5295;SDS011;2670;42.720;23.336;2023-05-17T11:07:22;16.73;;;8.00;;
5295;SDS011;2670;42.720;23.336;2023-05-17T11:09:51;16.33;;;7.43;;
5295;SDS011;2670;42.720;23.336;2023-05-17T11:12:32;19.83;;;7.73;;
5295;SDS011;2670;42.720;23.336;2023-05-17T11:15:02;13.87;;;8.20;;
5295;SDS011;2670;42.720;23.336;2023-05-17T11:17:33;18.60;;;7.90;;
5295;SDS011;2670;42.720;23.336;2023-05-17T11:20:03;16.87;;;8.30;;
5295;SDS011;2670;42.720;23.336;2023-05-17T11:22:35;17.10;;;8.60;;
5295;SDS011;2670;42.720;23.336;2023-05-17T11:25:06;19.17;;;9.23;;
5295;SDS011;2670;42.720;23.336;2023-05-17T11:27:36;24.00;;;9.67;;
5295;SDS011;2670;42.720;23.336;2023-05-17T11:30:08;23.20;;;8.80;;
5295;SDS011;2670;42.720;23.336;2023-05-17T11:32:48;16.77;;;9.70;;
5295;SDS011;2670;42.720;23.336;2023-05-17T11:35:17;21.50;;;8.60;;
5295;SDS011;2670;42.720;23.336;2023-05-17T11:37:50;41.47;;;11.27;;
5295;SDS011;2670;42.720;23.336;2023-05-17T11:40:23;29.43;;;9.40;;
5295;SDS011;2670;42.720;23.336;2023-05-17T11:45:47;18.10;;;8.23;;
5295;SDS011;2670;42.720;23.336;2023-05-17T11:48:15;21.13;;;8.17;;
5295;SDS011;2670;42.720;23.336;2023-05-17T11:50:45;20.70;;;9.00;;
5295;SDS011;2670;42.720;23.336;2023-05-17T11:53:13;21.60;;;9.10;;
5295;SDS011;2670;42.720;23.336;2023-05-17T11:55:41;18.17;;;7.97;;
5295;SDS011;2670;42.720;23.336;2023-05-17T11:58:09;24.10;;;8.47;;
5295;SDS011;2670;42.720;23.336;2023-05-17T12:00:36;15.67;;;8.37;;
5295;SDS011;2670;42.720;23.336;2023-05-17T12:03:15;20.10;;;8.90;;
5295;SDS011;2670;42.720;23.336;2023-05-17T12:05:44;15.20;;;8.20;;
5295;SDS011;2670;42.720;23.336;2023-05-17T12:08:13;18.60;;;9.50;;
5295;SDS011;2670;42.720;23.336;2023-05-17T12:10:45;24.13;;;8.80;;
5295;SDS011;2670;42.720;23.336;2023-05-17T12:13:13;18.43;;;9.00;;
5295;SDS011;2670;42.720;23.336;2023-05-17T12:15:40;15.83;;;8.80;;
5295;SDS011;2670;42.720;23.336;2023-05-17T12:18:11;23.90;;;9.00;;
5295;SDS011;2670;42.720;23.336;2023-05-17T12:20:37;14.50;;;7.33;;
5295;SDS011;2670;42.720;23.336;2023-05-17T12:23:05;16.20;;;8.27;;
5295;SDS011;2670;42.720;23.336;2023-05-17T12:25:32;15.43;;;7.87;;
5295;SDS011;2670;42.720;23.336;2023-05-17T12:28:11;17.33;;;8.13;;
5295;SDS011;2670;42.720;23.336;2023-05-17T12:30:38;17.60;;;8.53;;
5295;SDS011;2670;42.720;23.336;2023-05-17T12:33:05;10.87;;;7.00;;
5295;SDS011;2670;42.720;23.336;2023-05-17T12:35:33;14.13;;;8.50;;
5295;SDS011;2670;42.720;23.336;2023-05-17T12:38:00;15.83;;;9.23;;
5295;SDS011;2670;42.720;23.336;2023-05-17T12:40:28;19.50;;;8.27;;
5295;SDS011;2670;42.720;23.336;2023-05-17T12:43:00;16.43;;;8.50;;
5295;SDS011;2670;42.720;23.336;2023-05-17T12:45:27;18.00;;;8.17;;
5295;SDS011;2670;42.720;23.336;2023-05-17T12:47:54;12.17;;;7.87;;
5295;SDS011;2670;42.720;23.336;2023-05-17T12:50:24;22.00;;;8.67;;
5295;SDS011;2670;42.720;23.336;2023-05-17T12:52:51;15.83;;;7.60;;
5295;SDS011;2670;42.720;23.336;2023-05-17T12:55:18;18.70;;;8.73;;
5295;SDS011;2670;42.720;23.336;2023-05-17T12:57:49;16.23;;;8.93;;
5295;SDS011;2670;42.720;23.336;2023-05-17T13:00:17;15.50;;;8.10;;
5295;SDS011;2670;42.720;23.336;2023-05-17T13:02:44;16.80;;;7.53;;
5295;SDS011;2670;42.720;23.336;2023-05-17T13:05:15;14.83;;;8.60;;
5295;SDS011;2670;42.720;23.336;2023-05-17T13:07:42;19.73;;;8.10;;
5295;SDS011;2670;42.720;23.336;2023-05-17T13:10:20;16.90;;;8.40;;
5295;SDS011;2670;42.720;23.336;2023-05-17T13:12:55;17.90;;;8.13;;
5295;SDS011;2670;42.720;23.336;2023-05-17T13:15:26;18.77;;;7.30;;
5295;SDS011;2670;42.720;23.336;2023-05-17T13:17:54;13.23;;;7.60;;
5295;SDS011;2670;42.720;23.336;2023-05-17T13:20:20;16.47;;;7.60;;
5295;SDS011;2670;42.720;23.336;2023-05-17T13:22:47;11.60;;;7.50;;
5295;SDS011;2670;42.720;23.336;2023-05-17T13:25:14;17.53;;;7.37;;
5295;SDS011;2670;42.720;23.336;2023-05-17T13:27:41;16.20;;;6.43;;
5295;SDS011;2670;42.720;23.336;2023-05-17T13:30:12;8.90;;;6.00;;
5295;SDS011;2670;42.720;23.336;2023-05-17T13:32:40;16.67;;;7.83;;
5295;SDS011;2670;42.720;23.336;2023-05-17T13:35:07;12.40;;;7.23;;
5295;SDS011;2670;42.720;23.336;2023-05-17T13:37:34;15.70;;;7.57;;
5295;SDS011;2670;42.720;23.336;2023-05-17T13:40:00;16.20;;;8.30;;
5295;SDS011;2670;42.720;23.336;2023-05-17T13:42:27;13.37;;;7.43;;
5295;SDS011;2670;42.720;23.336;2023-05-17T13:44:54;15.50;;;6.40;;
5295;SDS011;2670;42.720;23.336;2023-05-17T13:47:22;15.80;;;6.70;;
5295;SDS011;2670;42.720;23.336;2023-05-17T13:49:49;13.50;;;6.90;;
5295;SDS011;2670;42.720;23.336;2023-05-17T13:52:16;18.47;;;6.43;;
5295;SDS011;2670;42.720;23.336;2023-05-17T13:54:42;18.27;;;7.03;;
5295;SDS011;2670;42.720;23.336;2023-05-17T13:57:09;15.07;;;7.07;;
5295;SDS011;2670;42.720;23.336;2023-05-17T13:59:37;14.90;;;6.87;;
5295;SDS011;2670;42.720;23.336;2023-05-17T14:02:05;12.47;;;6.77;;
5295;SDS011;2670;42.720;23.336;2023-05-17T14:04:34;17.70;;;6.30;;
5295;SDS011;2670;42.720;23.336;2023-05-17T14:07:01;10.47;;;5.50;;
5295;SDS011;2670;42.720;23.336;2023-05-17T14:09:28;10.50;;;5.30;;
5295;SDS011;2670;42.720;23.336;2023-05-17T14:11:57;14.83;;;5.33;;
5295;SDS011;2670;42.720;23.336;2023-05-17T14:14:24;10.40;;;5.20;;
5295;SDS011;2670;42.720;23.336;2023-05-17T14:16:52;10.40;;;5.67;;
5295;SDS011;2670;42.720;23.336;2023-05-17T14:19:21;13.97;;;5.30;;
5295;SDS011;2670;42.720;23.336;2023-05-17T14:21:49;12.17;;;5.67;;
5295;SDS011;2670;42.720;23.336;2023-05-17T14:24:16;10.07;;;6.17;;
5295;SDS011;2670;42.720;23.336;2023-05-17T14:26:43;10.33;;;5.60;;
5295;SDS011;2670;42.720;23.336;2023-05-17T14:29:10;17.83;;;6.07;;
5295;SDS011;2670;42.720;23.336;2023-05-17T14:31:36;14.20;;;6.10;;
5295;SDS011;2670;42.720;23.336;2023-05-17T14:34:03;11.00;;;5.50;;
5295;SDS011;2670;42.720;23.336;2023-05-17T14:36:30;10.90;;;6.53;;
5295;SDS011;2670;42.720;23.336;2023-05-17T14:39:01;16.43;;;6.63;;
5295;SDS011;2670;42.720;23.336;2023-05-17T14:41:28;15.57;;;6.80;;
5295;SDS011;2670;42.720;23.336;2023-05-17T14:43:54;20.10;;;7.80;;
5295;SDS011;2670;42.720;23.336;2023-05-17T14:46:21;15.23;;;8.43;;
5295;SDS011;2670;42.720;23.336;2023-05-17T14:48:48;28.93;;;8.20;;
5295;SDS011;2670;42.720;23.336;2023-05-17T14:51:16;13.33;;;7.70;;
5295;SDS011;2670;42.720;23.336;2023-05-17T14:53:42;13.97;;;6.63;;